Terminal Aerodrome Forecast
Issued by NWS Cleveland, OH

Home | Current Version | Previous Version | Graphics & Text | Print | Product List | Glossary Off
Versions: 1 2 3 4 5 6 7 8 9 10 11 12 13 14 15 16 17 18 19

000
FTUS41 KCLE 291100
TAFMFD
TAF
KMFD 291137Z 2912/3012 22010KT P6SM FEW200
     FM291500 20015G25KT P6SM SCT100 BKN200
     FM300000 21018G28KT 6SM -SHRA OVC045
     FM300500 21018G28KT 6SM -SHRA OVC025
     FM300700 26018G28KT P6SM SCT008 OVC018=

USA.gov is the U.S. government's official web portal to all federal, state and local government web resources and services.